Time;durP1;ratioP1;P1;durP2;ratioP2;P2;SDS_P1;SDS_P2;PMS_P1;PMS_P2;Temp;Humidity;BMP_temperature;BMP_pressure;BME280_temperature;BME280_humidity;BME280_pressure;Samples;Min_cycle;Max_cycle;Signal;HPM_P1;HPM_P2
2021/11/11 00:00:50;;;;;;;14.88;8.82;;;;;;;2.86;70.80;101168.00;5074984;28;20056;-58
2021/11/11 00:03:20;;;;;;;15.25;9.25;;;;;;;2.87;70.31;101166.06;5072638;28;20056;-58
2021/11/11 00:05:47;;;;;;;14.88;8.73;;;;;;;2.81;70.15;101174.25;5055257;28;20072;-58
2021/11/11 00:08:17;;;;;;;13.05;9.27;;;;;;;2.88;70.14;101168.59;5067619;28;20048;-58
2021/11/11 00:10:45;;;;;;;15.32;8.75;;;;;;;2.87;70.13;101164.16;5065810;28;20052;-58
2021/11/11 00:13:12;;;;;;;15.02;9.25;;;;;;;2.89;70.13;101153.75;5074091;28;20052;-57
2021/11/11 00:15:39;;;;;;;16.08;8.95;;;;;;;2.88;70.39;101142.97;5054521;28;20057;-58
2021/11/11 00:18:07;;;;;;;14.30;8.82;;;;;;;2.84;69.52;101145.41;5056090;28;20056;-58
2021/11/11 00:20:34;;;;;;;15.07;9.05;;;;;;;2.83;69.48;101151.97;5066277;28;20052;-58
2021/11/11 00:23:01;;;;;;;16.10;10.25;;;;;;;2.81;70.33;101152.25;5063606;28;20064;-58
2021/11/11 00:25:30;;;;;;;16.35;9.52;;;;;;;2.81;70.37;101152.25;5059898;28;20057;-58
2021/11/11 00:27:58;;;;;;;17.48;9.75;;;;;;;2.78;70.30;101160.13;5074271;28;20426;-57
2021/11/11 00:30:25;;;;;;;14.20;9.20;;;;;;;2.71;70.08;101157.53;5067853;28;20049;-58
2021/11/11 00:32:53;;;;;;;13.68;8.20;;;;;;;2.54;70.05;101159.38;5053779;28;20076;-58
2021/11/11 00:35:22;;;;;;;13.07;8.20;;;;;;;2.64;70.01;101151.31;5054802;28;20056;-58
2021/11/11 00:37:50;;;;;;;13.13;9.15;;;;;;;2.60;70.40;101140.00;5055239;28;20063;-58
2021/11/11 00:40:18;;;;;;;14.35;9.10;;;;;;;2.58;70.11;101130.31;5053900;28;20068;-58
2021/11/11 00:42:48;;;;;;;16.15;9.43;;;;;;;2.51;70.63;101135.13;5054132;28;20060;-58
2021/11/11 00:45:16;;;;;;;15.75;9.57;;;;;;;2.48;70.78;101125.47;5059867;28;20056;-58
2021/11/11 00:47:44;;;;;;;14.45;9.82;;;;;;;2.46;70.71;101129.50;5073910;28;20513;-58
2021/11/11 00:50:14;;;;;;;19.17;10.23;;;;;;;2.48;70.85;101130.09;5061596;28;20060;-57
2021/11/11 00:52:41;;;;;;;17.05;9.93;;;;;;;2.44;70.46;101140.78;5053842;28;20401;-58
2021/11/11 00:55:10;;;;;;;17.85;10.25;;;;;;;2.45;70.65;101131.44;5054150;28;20064;-58
2021/11/11 00:57:38;;;;;;;18.42;9.65;;;;;;;2.42;70.66;101127.25;5054026;28;20423;-57
2021/11/11 01:00:09;;;;;;;17.50;9.80;;;;;;;2.45;70.51;101117.69;5053910;28;20072;-57
2021/11/11 01:02:37;;;;;;;16.95;9.98;;;;;;;2.47;70.64;101126.53;5062643;28;20052;-58
2021/11/11 01:05:05;;;;;;;15.38;9.95;;;;;;;2.57;69.82;101123.16;5060440;28;20052;-58
2021/11/11 01:07:34;;;;;;;14.45;9.88;;;;;;;2.55;69.72;101130.81;5060727;28;20052;-58
2021/11/11 01:10:02;;;;;;;14.30;9.10;;;;;;;2.53;70.84;101130.22;5057709;28;20502;-57
2021/11/11 01:12:31;;;;;;;15.73;9.30;;;;;;;2.54;70.55;101126.38;5060704;28;20083;-58
2021/11/11 01:14:59;;;;;;;13.45;8.90;;;;;;;2.53;70.26;101128.28;5053325;28;20049;-57
2021/11/11 01:17:28;;;;;;;15.75;9.68;;;;;;;2.54;70.41;101118.97;5060196;28;20414;-57
2021/11/11 01:19:56;;;;;;;15.48;9.45;;;;;;;2.55;70.71;101114.31;5062160;28;20040;-57
2021/11/11 01:22:23;;;;;;;17.20;10.15;;;;;;;2.52;69.94;101115.63;5068025;28;20049;-59
2021/11/11 01:24:51;;;;;;;17.02;9.10;;;;;;;2.52;70.42;101120.28;5072271;28;20479;-57
2021/11/11 01:27:19;;;;;;;18.75;9.75;;;;;;;2.49;69.61;101120.78;5063016;28;20055;-58
2021/11/11 01:29:46;;;;;;;16.52;9.55;;;;;;;2.49;69.48;101112.53;5054464;28;20049;-58
2021/11/11 01:32:13;;;;;;;15.55;9.50;;;;;;;2.43;70.51;101112.41;5061001;28;20495;-58
2021/11/11 01:34:42;;;;;;;13.43;9.38;;;;;;;2.42;69.97;101099.78;5057744;28;20052;-58
2021/11/11 01:37:09;;;;;;;16.08;10.10;;;;;;;2.41;70.27;101106.31;5057787;28;20052;-58
2021/11/11 01:39:37;;;;;;;19.25;11.07;;;;;;;2.52;70.18;101098.28;5063194;28;20057;-58
2021/11/11 01:42:05;;;;;;;16.73;9.85;;;;;;;2.48;69.81;101094.34;5052951;28;20045;-58
2021/11/11 01:44:32;;;;;;;14.48;9.45;;;;;;;2.49;70.27;101104.28;5052595;28;20041;-58
2021/11/11 01:46:59;;;;;;;14.18;10.00;;;;;;;2.50;71.00;101108.69;5056976;28;20052;-57
2021/11/11 01:49:27;;;;;;;13.77;9.68;;;;;;;2.53;70.40;101091.72;5060172;28;20060;-58
2021/11/11 01:51:56;;;;;;;14.20;9.77;;;;;;;2.48;70.32;101086.09;5052344;28;20049;-58
2021/11/11 01:54:23;;;;;;;14.18;9.00;;;;;;;2.49;70.59;101093.28;5058175;28;20045;-58
2021/11/11 01:56:51;;;;;;;15.15;10.05;;;;;;;2.44;70.90;101088.53;5059884;28;20052;-57
2021/11/11 01:59:18;;;;;;;14.43;9.50;;;;;;;2.47;71.13;101089.94;5071651;28;20060;-58
2021/11/11 02:01:45;;;;;;;14.07;8.48;;;;;;;2.50;70.70;101089.44;5055284;28;20057;-58
2021/11/11 02:04:13;;;;;;;16.48;9.25;;;;;;;2.48;70.47;101092.47;5059000;28;20057;-58
2021/11/11 02:06:40;;;;;;;14.98;9.90;;;;;;;2.55;70.83;101090.38;5063411;28;20057;-58
2021/11/11 02:09:09;;;;;;;12.82;9.18;;;;;;;2.63;69.84;101094.66;5061829;28;20056;-59
2021/11/11 02:11:36;;;;;;;14.55;10.25;;;;;;;2.68;69.89;101088.44;5066463;28;20056;-58
2021/11/11 02:14:03;;;;;;;14.93;9.55;;;;;;;2.60;70.24;101085.00;5056088;28;20052;-58
2021/11/11 02:16:31;;;;;;;15.18;9.73;;;;;;;2.67;70.09;101079.34;5059743;28;20052;-58
2021/11/11 02:18:58;;;;;;;14.38;10.02;;;;;;;2.66;70.44;101065.84;5064343;28;20049;-58
2021/11/11 02:21:27;;;;;;;17.45;9.50;;;;;;;2.69;69.48;101073.56;5063308;28;20049;-57
2021/11/11 02:23:54;;;;;;;14.45;10.25;;;;;;;2.61;69.73;101072.06;5062853;28;20406;-58
2021/11/11 02:26:21;;;;;;;14.38;9.43;;;;;;;2.66;69.80;101074.91;5057252;28;20049;-58
2021/11/11 02:28:50;;;;;;;17.48;9.98;;;;;;;2.76;69.20;101064.09;5062672;28;20048;-58
2021/11/11 02:31:17;;;;;;;17.50;10.10;;;;;;;2.78;69.46;101066.59;5060194;28;20052;-58
2021/11/11 02:33:53;;;;;;;18.23;10.20;;;;;;;2.70;69.65;101064.25;5072191;28;20499;-58
2021/11/11 02:36:20;;;;;;;18.60;10.23;;;;;;;2.62;69.53;101069.09;5063870;28;20059;-58
2021/11/11 02:38:50;;;;;;;13.80;9.77;;;;;;;2.72;69.77;101076.66;5061829;28;20423;-58
2021/11/11 02:41:18;;;;;;;15.18;9.48;;;;;;;2.78;69.76;101069.34;5065178;28;20053;-58
2021/11/11 02:43:45;;;;;;;14.07;8.73;;;;;;;2.76;69.36;101072.34;5071324;28;20041;-58
2021/11/11 02:46:13;;;;;;;19.90;10.27;;;;;;;2.79;69.41;101066.38;5071095;28;20491;-58
2021/11/11 02:48:40;;;;;;;22.60;11.55;;;;;;;2.73;69.38;101069.25;5053806;28;20396;-58
2021/11/11 02:51:08;;;;;;;26.17;11.90;;;;;;;2.69;70.88;101071.69;5051933;28;20053;-58
2021/11/11 02:53:35;;;;;;;21.17;11.25;;;;;;;2.78;71.02;101083.13;5051882;28;20064;-58
2021/11/11 02:56:04;;;;;;;28.10;12.30;;;;;;;2.74;70.47;101092.94;5055902;28;20419;-58
2021/11/11 02:58:32;;;;;;;13.00;8.60;;;;;;;2.82;70.77;101087.88;5070745;28;20052;-58
2021/11/11 03:01:07;;;;;;;13.25;8.60;;;;;;;2.83;70.53;101092.31;5067625;28;20048;-58
2021/11/11 03:03:34;;;;;;;18.08;9.52;;;;;;;2.89;70.13;101090.47;5052345;28;20052;-58
2021/11/11 03:06:01;;;;;;;30.52;10.90;;;;;;;2.93;70.00;101093.56;5052119;28;20053;-58
2021/11/11 03:08:29;;;;;;;37.10;11.35;;;;;;;3.01;69.82;101102.22;5051879;28;20057;-58
2021/11/11 03:10:57;;;;;;;35.97;12.13;;;;;;;3.01;70.14;101093.97;5053450;28;20044;-56
2021/11/11 03:13:25;;;;;;;43.83;12.25;;;;;;;2.85;71.90;101098.38;5066960;28;20056;-57
2021/11/11 03:15:56;;;;;;;42.13;12.77;;;;;;;2.75;71.21;101087.19;5071545;28;20059;-57
2021/11/11 03:18:25;;;;;;;38.92;12.18;;;;;;;2.68;72.11;101092.00;5065399;28;20061;-58
2021/11/11 03:20:53;;;;;;;36.08;13.65;;;;;;;2.75;71.87;101087.19;5072265;28;20060;-57
2021/11/11 03:23:20;;;;;;;46.65;14.27;;;;;;;2.78;71.45;101085.88;5069146;28;20459;-57
2021/11/11 03:25:48;;;;;;;46.60;13.75;;;;;;;2.80;70.97;101095.53;5052698;28;20056;-57
2021/11/11 03:28:15;;;;;;;48.25;14.40;;;;;;;2.73;71.14;101096.75;5071621;28;20052;-59
2021/11/11 03:30:44;;;;;;;42.17;14.05;;;;;;;2.75;71.81;101097.34;5068943;28;20063;-56
2021/11/11 03:33:11;;;;;;;42.47;14.80;;;;;;;2.67;71.27;101103.25;5051914;28;20053;-57
2021/11/11 03:35:39;;;;;;;37.90;12.85;;;;;;;2.64;71.54;101096.31;5067847;28;20423;-57
2021/11/11 03:38:08;;;;;;;36.00;13.82;;;;;;;2.56;72.01;101089.31;5071241;28;20048;-57
2021/11/11 03:40:38;;;;;;;31.20;13.48;;;;;;;2.53;71.63;101084.31;5070493;28;20055;-57
2021/11/11 03:43:07;;;;;;;26.25;12.88;;;;;;;2.51;72.21;101102.13;5066388;28;20407;-57
2021/11/11 03:45:35;;;;;;;24.27;12.73;;;;;;;2.59;71.60;101096.25;5069539;28;20135;-57
2021/11/11 03:48:04;;;;;;;32.95;12.35;;;;;;;2.56;71.83;101093.97;5073148;28;20415;-57
2021/11/11 03:50:32;;;;;;;27.67;12.82;;;;;;;2.50;71.22;101090.31;5074166;28;20052;-57
2021/11/11 03:53:03;;;;;;;26.70;14.05;;;;;;;2.49;72.19;101093.28;5074925;28;20411;-57
2021/11/11 03:55:31;;;;;;;27.75;12.45;;;;;;;2.52;71.47;101101.03;5058957;28;20048;-57
2021/11/11 03:57:59;;;;;;;20.40;11.70;;;;;;;2.60;70.95;101095.16;5054674;28;20063;-57
2021/11/11 04:00:27;;;;;;;24.70;13.35;;;;;;;2.57;71.73;101099.22;5054758;28;20415;-57
2021/11/11 04:02:54;;;;;;;16.55;10.98;;;;;;;2.64;71.11;101088.91;5054741;28;20052;-57
2021/11/11 04:05:23;;;;;;;30.98;12.80;;;;;;;2.64;71.89;101090.81;5055530;28;20053;-57
2021/11/11 04:07:50;;;;;;;27.75;13.40;;;;;;;2.70;71.48;101089.00;5068114;28;20063;-57
2021/11/11 04:10:18;;;;;;;21.48;12.10;;;;;;;2.74;70.52;101084.69;5072649;28;20079;-57
2021/11/11 04:12:45;;;;;;;18.83;11.80;;;;;;;2.68;71.25;101081.00;5060189;28;20087;-57
2021/11/11 04:15:14;;;;;;;23.77;12.27;;;;;;;2.70;70.37;101081.59;5069449;28;20396;-56
2021/11/11 04:17:41;;;;;;;24.73;12.70;;;;;;;2.71;71.00;101080.53;5054314;28;20069;-56
2021/11/11 04:20:10;;;;;;;21.33;11.90;;;;;;;2.70;70.85;101086.25;5064945;28;21036;-57
2021/11/11 04:22:39;;;;;;;19.53;11.83;;;;;;;2.66;71.33;101091.41;5072539;28;20511;-57
2021/11/11 04:25:08;;;;;;;24.52;12.27;;;;;;;2.62;70.52;101093.84;5065868;28;20056;-56
2021/11/11 04:27:40;;;;;;;30.05;13.98;;;;;;;2.67;70.84;101095.84;5073515;28;20052;-58
2021/11/11 04:30:15;;;;;;;27.45;13.65;;;;;;;2.53;71.16;101100.78;5069523;28;20049;-57
2021/11/11 04:32:43;;;;;;;32.00;13.35;;;;;;;2.55;71.58;101106.06;5054007;28;20049;-56
2021/11/11 04:35:11;;;;;;;31.80;13.13;;;;;;;2.50;71.42;101101.31;5053639;28;20392;-57
2021/11/11 04:37:51;;;;;;;28.80;13.30;;;;;;;2.57;71.77;101106.66;5054562;28;20063;-57
2021/11/11 04:49:06;;;;;;;41.70;15.45;;;;;;;2.49;72.19;101104.28;5061218;28;20060;-58
2021/11/11 04:52:08;;;;;;;30.73;13.98;;;;;;;2.49;71.76;101105.13;5073777;28;20056;-58
2021/11/11 05:03:08;;;;;;;29.13;14.38;;;;;;;2.56;71.98;101121.47;5047089;28;20060;-58
2021/11/11 05:05:36;;;;;;;28.10;14.23;;;;;;;2.59;71.00;101123.75;5061715;28;20076;-58
2021/11/11 05:08:04;;;;;;;33.75;14.50;;;;;;;2.57;71.37;101123.97;5070144;28;20060;-58
2021/11/11 05:10:33;;;;;;;20.20;12.88;;;;;;;2.57;70.78;101134.16;5069417;28;20053;-58
2021/11/11 05:13:01;;;;;;;24.83;13.70;;;;;;;2.57;71.52;101125.91;5064794;28;20383;-58
2021/11/11 05:15:28;;;;;;;18.55;12.50;;;;;;;2.58;70.92;101127.56;5073354;28;20061;-58
2021/11/11 05:17:56;;;;;;;19.13;14.05;;;;;;;2.55;70.93;101136.31;5073315;28;20056;-57
2021/11/11 05:20:23;;;;;;;19.33;12.55;;;;;;;2.52;70.11;101132.16;5054971;28;20055;-58
2021/11/11 05:22:51;;;;;;;18.50;12.07;;;;;;;2.53;69.84;101127.47;5056371;28;20415;-58
2021/11/11 05:25:20;;;;;;;18.80;12.50;;;;;;;2.56;70.07;101135.22;5053450;28;20053;-58
2021/11/11 05:27:49;;;;;;;17.58;12.07;;;;;;;2.52;69.89;101134.91;5068768;28;20095;-58
2021/11/11 05:30:19;;;;;;;19.27;12.63;;;;;;;2.29;70.44;101133.03;5067159;28;20053;-58
2021/11/11 05:32:46;;;;;;;18.67;11.48;;;;;;;2.38;70.23;101142.56;5053106;28;20056;-58
2021/11/11 05:35:14;;;;;;;15.45;10.30;;;;;;;2.43;70.79;101142.66;5056366;28;20076;-57
2021/11/11 05:37:42;;;;;;;17.77;12.43;;;;;;;2.45;70.24;101150.69;5071405;28;20518;-58
2021/11/11 05:40:11;;;;;;;14.38;10.23;;;;;;;2.47;69.51;101154.03;5071823;28;20058;-57
2021/11/11 05:42:39;;;;;;;16.45;10.82;;;;;;;2.49;69.41;101153.78;5072806;28;20059;-58
2021/11/11 05:45:09;;;;;;;15.38;10.63;;;;;;;2.46;68.88;101146.00;5072284;28;20380;-58
2021/11/11 05:47:36;;;;;;;15.75;10.80;;;;;;;2.43;68.99;101153.66;5065599;28;20052;-58
2021/11/11 05:50:05;;;;;;;17.58;11.10;;;;;;;2.39;69.33;101160.75;5072871;28;20049;-58
2021/11/11 05:52:33;;;;;;;17.40;10.85;;;;;;;2.33;68.89;101152.63;5072339;28;20055;-58
2021/11/11 05:55:00;;;;;;;17.63;10.73;;;;;;;2.41;69.31;101146.75;5068122;28;20048;-58
2021/11/11 05:57:28;;;;;;;17.20;10.82;;;;;;;2.43;69.10;101148.16;5072530;28;20048;-57
2021/11/11 05:59:55;;;;;;;19.92;11.07;;;;;;;2.44;68.45;101151.78;5071154;28;20048;-57
2021/11/11 06:02:24;;;;;;;28.88;12.40;;;;;;;2.40;68.05;101142.34;5060486;28;20063;-57
2021/11/11 06:04:51;;;;;;;22.80;11.40;;;;;;;2.29;68.55;101143.19;5072657;28;20479;-58
2021/11/11 06:07:19;;;;;;;19.65;11.35;;;;;;;2.24;68.78;101138.41;5072022;28;20044;-58
2021/11/11 06:09:46;;;;;;;20.90;12.68;;;;;;;2.18;69.20;101139.38;5071238;28;20049;-57
2021/11/11 06:12:13;;;;;;;20.08;11.95;;;;;;;2.10;68.94;101137.00;5059184;28;20056;-58
2021/11/11 06:14:41;;;;;;;22.88;11.82;;;;;;;2.08;69.01;101141.91;5071947;28;20071;-58
2021/11/11 06:17:08;;;;;;;21.35;12.27;;;;;;;2.06;68.75;101138.56;5072047;28;20056;-58
2021/11/11 06:19:40;;;;;;;20.45;12.57;;;;;;;2.03;69.00;101140.72;5072280;28;20053;-58
2021/11/11 06:22:08;;;;;;;25.27;14.15;;;;;;;2.02;69.50;101150.06;5072492;28;20048;-58
2021/11/11 06:24:35;;;;;;;23.98;14.15;;;;;;;1.99;69.28;101145.03;5063209;28;20392;-58
2021/11/11 06:27:03;;;;;;;23.98;13.25;;;;;;;1.97;70.09;101144.44;5055833;28;20049;-57
2021/11/11 06:29:30;;;;;;;36.97;14.57;;;;;;;1.96;70.01;101148.28;5057765;28;20072;-58
2021/11/11 06:31:58;;;;;;;28.20;14.18;;;;;;;1.99;70.37;101153.28;5059888;28;20051;-58
2021/11/11 06:34:25;;;;;;;48.45;16.15;;;;;;;2.00;71.00;101152.22;5071884;28;20482;-57
2021/11/11 06:36:54;;;;;;;50.03;16.02;;;;;;;2.05;71.15;101156.97;5066426;28;20053;-57
2021/11/11 06:39:22;;;;;;;44.88;15.07;;;;;;;2.09;71.48;101168.31;5052227;28;20067;-57
2021/11/11 06:41:49;;;;;;;35.58;15.43;;;;;;;2.09;71.43;101166.41;5056015;28;20418;-57
2021/11/11 06:44:22;;;;;;;37.42;14.63;;;;;;;2.14;71.35;101165.69;5054720;28;20045;-57
2021/11/11 06:46:50;;;;;;;53.15;15.23;;;;;;;2.17;71.58;101173.47;5061071;28;20048;-57
2021/11/11 06:49:18;;;;;;;32.42;14.73;;;;;;;2.24;71.67;101174.16;5064334;28;20048;-57
2021/11/11 06:51:46;;;;;;;36.25;14.52;;;;;;;2.29;71.61;101176.16;5057416;28;20059;-57
2021/11/11 06:54:15;;;;;;;34.75;14.68;;;;;;;2.28;71.69;101175.34;5071516;28;20052;-57
2021/11/11 06:56:43;;;;;;;39.10;13.77;;;;;;;2.27;70.91;101186.56;5056116;28;20045;-56
2021/11/11 06:59:10;;;;;;;48.60;14.93;;;;;;;2.30;71.65;101183.34;5071690;28;20398;-57
2021/11/11 07:01:37;;;;;;;37.70;16.05;;;;;;;2.39;71.32;101181.88;5065472;28;20057;-57
2021/11/11 07:04:05;;;;;;;35.88;16.33;;;;;;;2.38;71.13;101185.72;5057768;28;20052;-57
2021/11/11 07:06:33;;;;;;;37.65;13.63;;;;;;;2.44;70.81;101179.25;5058277;28;20049;-57
2021/11/11 07:09:00;;;;;;;48.17;14.38;;;;;;;2.48;71.27;101190.59;5056666;28;20498;-58
2021/11/11 07:11:29;;;;;;;43.70;13.57;;;;;;;2.48;71.07;101198.84;5063233;28;20052;-58
2021/11/11 07:13:56;;;;;;;58.47;14.43;;;;;;;2.42;71.32;101192.41;5066035;28;20075;-57
2021/11/11 07:16:26;;;;;;;72.25;18.25;;;;;;;2.58;71.04;101208.16;5056446;28;20057;-57
2021/11/11 07:18:56;;;;;;;66.82;15.57;;;;;;;2.71;71.13;101206.19;5055168;28;20060;-57
2021/11/11 07:21:24;;;;;;;55.33;13.98;;;;;;;2.78;70.93;101207.72;5071198;28;20048;-57
2021/11/11 07:23:52;;;;;;;44.05;13.32;;;;;;;2.83;71.11;101209.75;5059123;28;20055;-58
2021/11/11 07:26:19;;;;;;;39.83;13.32;;;;;;;3.01;71.04;101214.25;5064543;28;20491;-58
2021/11/11 07:28:48;;;;;;;28.95;13.00;;;;;;;3.16;70.16;101210.94;5073196;28;20059;-57
2021/11/11 07:31:21;;;;;;;41.25;13.25;;;;;;;3.23;69.92;101208.84;5059971;28;20049;-59
2021/11/11 07:33:48;;;;;;;35.92;13.25;;;;;;;3.31;70.06;101216.72;5057333;28;20423;-58
2021/11/11 07:36:16;;;;;;;54.28;13.50;;;;;;;3.37;69.43;101218.47;5069360;28;20499;-58
2021/11/11 07:38:43;;;;;;;26.98;12.00;;;;;;;3.43;69.27;101216.66;5056104;28;20061;-58
2021/11/11 07:41:11;;;;;;;29.92;11.80;;;;;;;3.53;68.52;101218.72;5054925;28;20057;-58
2021/11/11 07:43:38;;;;;;;26.75;12.73;;;;;;;3.53;69.11;101213.22;5061656;28;20049;-58
2021/11/11 07:46:07;;;;;;;31.05;12.40;;;;;;;3.64;68.58;101221.44;5073830;28;20089;-58
2021/11/11 07:48:34;;;;;;;48.03;14.00;;;;;;;3.57;68.87;101223.53;5065196;28;20052;-58
2021/11/11 07:51:04;;;;;;;35.40;13.23;;;;;;;3.72;68.58;101224.88;5068342;28;20044;-56
2021/11/11 07:53:32;;;;;;;56.35;16.40;;;;;;;3.86;69.00;101220.66;5061098;28;20052;-58
2021/11/11 07:55:59;;;;;;;23.85;12.90;;;;;;;3.96;68.38;101229.09;5061864;28;20056;-59
2021/11/11 07:58:27;;;;;;;32.90;13.43;;;;;;;4.13;68.19;101219.97;5058435;28;20503;-59
2021/11/11 08:00:56;;;;;;;37.35;13.32;;;;;;;4.26;67.57;101216.88;5056379;28;20045;-59
2021/11/11 08:03:25;;;;;;;32.70;12.40;;;;;;;4.06;68.26;101222.94;5057935;28;20048;-43
2021/11/11 08:05:52;;;;;;;40.78;13.13;;;;;;;3.42;69.71;101223.22;5071747;28;20064;-43
2021/11/11 08:08:20;;;;;;;23.73;13.02;;;;;;;4.22;67.98;101221.22;5057684;28;20059;-60
2021/11/11 08:10:47;;;;;;;37.38;13.48;;;;;;;4.60;67.05;101222.28;5055446;28;20165;-60
2021/11/11 08:13:15;;;;;;;31.58;12.02;;;;;;;4.94;66.04;101224.94;5061763;28;20049;-60
2021/11/11 08:15:42;;;;;;;25.45;11.23;;;;;;;5.31;64.90;101221.44;5069665;28;20060;-60
2021/11/11 08:18:10;;;;;;;24.77;10.88;;;;;;;5.68;62.79;101216.81;5058022;28;20060;-60
2021/11/11 08:20:38;;;;;;;23.83;10.13;;;;;;;5.74;61.80;101220.47;5065279;28;20044;-60
2021/11/11 08:23:06;;;;;;;16.85;9.38;;;;;;;6.24;60.51;101219.22;5062362;28;20049;-60
2021/11/11 08:25:34;;;;;;;13.02;9.52;;;;;;;6.74;59.12;101211.47;5068136;28;20048;-60
2021/11/11 08:28:03;;;;;;;11.10;9.00;;;;;;;7.56;56.49;101210.81;5061301;28;20060;-60
2021/11/11 08:30:31;;;;;;;11.95;9.18;;;;;;;8.21;53.99;101211.03;5070701;28;20483;-60
2021/11/11 08:32:58;;;;;;;17.45;10.68;;;;;;;9.26;52.06;101200.94;5054084;28;20497;-59
2021/11/11 08:35:26;;;;;;;17.38;9.95;;;;;;;9.40;51.61;101203.91;5064935;28;20049;-60
2021/11/11 08:37:56;;;;;;;15.40;10.10;;;;;;;9.66;50.59;101202.59;5061132;28;20053;-61
2021/11/11 08:40:23;;;;;;;15.27;10.63;;;;;;;9.62;50.31;101197.94;5053987;28;20060;-60
2021/11/11 08:42:54;;;;;;;14.07;11.13;;;;;;;10.09;49.00;101188.03;5055739;28;20475;-60
2021/11/11 08:45:22;;;;;;;15.70;10.40;;;;;;;10.68;47.43;101194.38;5053850;28;20072;-59
2021/11/11 08:47:50;;;;;;;14.55;10.85;;;;;;;10.71;46.91;101183.47;5059761;28;20068;-60
2021/11/11 08:50:18;;;;;;;13.57;9.82;;;;;;;11.14;46.12;101186.22;5060394;28;20068;-60
2021/11/11 08:52:49;;;;;;;14.98;11.60;;;;;;;11.71;44.81;101180.59;5073267;28;20398;-61
2021/11/11 08:55:20;;;;;;;15.20;13.10;;;;;;;12.66;43.09;101185.03;5068860;28;20143;-60
2021/11/11 08:57:48;;;;;;;17.27;12.18;;;;;;;13.25;41.44;101180.38;5054841;28;20420;-60
2021/11/11 09:00:19;;;;;;;38.13;12.40;;;;;;;12.78;42.61;101179.75;5059283;28;20045;-60
2021/11/11 09:02:49;;;;;;;29.33;13.18;;;;;;;12.58;42.91;101187.41;5054181;28;20049;-60
2021/11/11 09:05:18;;;;;;;70.57;14.60;;;;;;;12.19;44.08;101187.91;5062335;28;20061;-57
2021/11/11 09:07:47;;;;;;;58.42;15.00;;;;;;;11.92;44.82;101188.66;5057895;28;20056;-60
2021/11/11 09:10:18;;;;;;;58.17;14.98;;;;;;;11.41;46.31;101197.84;5054926;28;20049;-59
2021/11/11 09:12:48;;;;;;;55.08;15.65;;;;;;;11.24;47.27;101198.38;5059111;28;20064;-60
2021/11/11 09:15:16;;;;;;;;;;;;;;;10.80;47.31;101205.94;5070285;28;20063;-60
2021/11/11 09:17:44;;;;;;;55.75;14.82;;;;;;;10.68;48.57;101205.50;5055810;28;19932;-60
2021/11/11 09:20:13;;;;;;;53.03;15.60;;;;;;;10.35;49.31;101208.09;5053436;28;20831;-60
2021/11/11 09:22:40;;;;;;;50.43;15.07;;;;;;;10.05;50.44;101206.44;5056304;28;20052;-60
2021/11/11 09:25:10;;;;;;;52.13;14.60;;;;;;;10.11;49.79;101203.31;5060596;28;20483;-60
2021/11/11 09:27:38;;;;;;;;;;;;;;;9.79;50.42;101203.06;5067553;28;20059;-60
2021/11/11 09:30:10;;;;;;;29.90;13.88;;;;;;;9.93;51.19;101196.53;5055493;28;19928;-60
2021/11/11 09:32:38;;;;;;;36.95;14.13;;;;;;;10.10;51.43;101198.88;5060579;28;20048;-60
2021/11/11 09:35:06;;;;;;;34.63;13.85;;;;;;;10.31;50.65;101182.81;5062711;28;20052;-60
2021/11/11 09:37:35;;;;;;;21.23;12.13;;;;;;;10.57;48.98;101190.88;5055498;28;20063;-59
2021/11/11 09:40:07;;;;;;;21.15;12.73;;;;;;;10.85;48.70;101188.31;5058235;28;20056;-60
2021/11/11 09:42:35;;;;;;;25.23;12.70;;;;;;;11.21;48.09;101182.22;5054631;28;20048;-60
2021/11/11 09:45:04;;;;;;;35.92;14.15;;;;;;;11.71;47.24;101180.59;5057282;28;20051;-59
2021/11/11 09:47:33;;;;;;;37.95;12.60;;;;;;;12.13;45.68;101177.94;5062469;28;20060;-60
2021/11/11 09:50:01;;;;;;;14.23;11.73;;;;;;;13.75;42.77;101169.13;5055617;28;20063;-59
2021/11/11 09:52:29;;;;;;;12.77;10.27;;;;;;;15.38;39.54;101174.00;5061625;28;20059;-59
2021/11/11 10:00:26;;;;;;;13.45;10.85;;;;;;;18.77;32.58;101167.34;5060449;28;20053;-60
2021/11/11 10:02:55;;;;;;;11.90;10.13;;;;;;;19.62;31.71;101164.72;5072766;28;20049;-61
2021/11/11 10:05:24;;;;;;;13.60;11.18;;;;;;;19.82;31.68;101163.72;5055995;28;20052;-60
2021/11/11 10:07:52;;;;;;;15.13;12.40;;;;;;;20.57;30.47;101159.22;5068573;28;20060;-59
2021/11/11 10:10:37;;;;;;;17.88;13.13;;;;;;;20.59;29.54;101165.38;5062292;28;20375;-60
2021/11/11 10:13:16;;;;;;;14.57;11.93;;;;;;;20.63;29.69;101163.44;5055961;28;20419;-60
2021/11/11 10:16:05;;;;;;;13.75;12.35;;;;;;;21.45;28.39;101167.38;5053370;28;20064;-61
2021/11/11 10:18:53;;;;;;;13.82;11.20;;;;;;;22.01;27.83;101157.59;5067110;28;20135;-60
2021/11/11 10:21:28;;;;;;;13.88;11.63;;;;;;;22.15;27.56;101148.50;5056583;28;20064;-60
2021/11/11 10:23:59;;;;;;;15.02;12.63;;;;;;;23.06;27.00;101155.34;5056630;28;20053;-60
2021/11/11 10:26:37;;;;;;;12.43;11.13;;;;;;;23.59;26.26;101154.44;5067520;28;20490;-60
2021/11/11 10:29:05;;;;;;;12.95;11.50;;;;;;;23.89;25.64;101157.25;5061060;28;20049;-60
2021/11/11 10:31:33;;;;;;;12.75;10.80;;;;;;;24.26;25.36;101147.88;5052031;28;20514;-61
2021/11/11 10:34:10;;;;;;;13.95;10.90;;;;;;;24.17;24.89;101144.56;5054881;28;20076;-58
2021/11/11 10:36:43;;;;;;;13.25;10.77;;;;;;;24.59;24.24;101140.47;5055763;28;20051;-60
2021/11/11 10:39:14;;;;;;;12.57;11.18;;;;;;;24.93;23.98;101128.91;5064688;28;20057;-60
2021/11/11 10:41:42;;;;;;;14.35;11.27;;;;;;;25.34;23.65;101128.75;5057226;28;20068;-60
2021/11/11 10:44:26;;;;;;;12.63;11.23;;;;;;;25.81;23.19;101126.09;5056553;28;20075;-59
2021/11/11 10:46:56;;;;;;;12.18;10.88;;;;;;;25.58;23.45;101110.13;5051980;28;20403;-60
2021/11/11 10:49:29;;;;;;;14.18;12.68;;;;;;;25.29;24.09;101120.59;5063389;28;20052;-60
2021/11/11 10:51:57;;;;;;;13.68;11.93;;;;;;;25.42;23.79;101119.00;5065294;28;20059;-60
2021/11/11 10:54:25;;;;;;;14.40;12.95;;;;;;;25.89;23.72;101116.31;5067751;28;20053;-60
2021/11/11 10:56:53;;;;;;;14.75;13.23;;;;;;;26.46;22.97;101115.59;5055619;28;20084;-60
2021/11/11 10:59:21;;;;;;;14.27;12.68;;;;;;;26.93;22.61;101120.03;5055352;28;20060;-60
2021/11/11 11:02:02;;;;;;;13.57;12.15;;;;;;;27.04;22.15;101111.44;5057507;28;20056;-60
2021/11/11 11:04:32;;;;;;;14.80;12.50;;;;;;;27.06;22.92;101108.97;5055457;28;20045;-61
2021/11/11 11:07:13;;;;;;;14.27;12.77;;;;;;;27.43;21.91;101096.22;5071321;28;20052;-58
2021/11/11 11:09:42;;;;;;;13.45;12.13;;;;;;;27.86;22.26;101089.47;5056948;28;20060;-59
2021/11/11 11:12:28;;;;;;;13.43;11.98;;;;;;;28.30;21.75;101088.72;5064014;28;20431;-59
2021/11/11 11:14:56;;;;;;;13.82;12.43;;;;;;;28.03;21.72;101093.44;5071159;28;20064;-59
2021/11/11 11:17:23;;;;;;;13.85;12.45;;;;;;;28.29;22.13;101084.22;5071656;28;20053;-59
2021/11/11 11:20:19;;;;;;;15.50;12.10;;;;;;;28.31;21.71;101096.09;5063353;28;20060;-59
2021/11/11 11:22:47;;;;;;;14.10;12.70;;;;;;;28.58;21.48;101089.75;5067296;28;20059;-59
2021/11/11 11:25:14;;;;;;;14.32;12.82;;;;;;;28.88;21.25;101094.75;5058559;28;20490;-59
2021/11/11 11:27:42;;;;;;;13.95;12.65;;;;;;;29.18;21.30;101084.59;5060030;28;20056;-59
2021/11/11 11:30:13;;;;;;;14.02;12.50;;;;;;;29.22;20.78;101084.56;5061217;28;20060;-59
2021/11/11 11:32:43;;;;;;;14.75;12.55;;;;;;;29.30;21.30;101081.19;5064507;28;20063;-59
2021/11/11 11:35:13;;;;;;;14.45;12.98;;;;;;;28.95;21.25;101082.38;5065405;28;20048;-59
2021/11/11 11:37:41;;;;;;;15.07;13.13;;;;;;;28.91;21.59;101078.75;5062732;28;20052;-59
2021/11/11 11:40:11;;;;;;;15.82;13.45;;;;;;;28.62;22.07;101083.97;5061654;28;20064;-59
2021/11/11 11:42:41;;;;;;;14.05;12.65;;;;;;;28.90;21.53;101080.00;5057656;28;20049;-59
2021/11/11 11:45:14;;;;;;;13.95;12.63;;;;;;;29.15;21.30;101079.75;5064612;28;20049;-59
2021/11/11 11:47:45;;;;;;;15.27;13.00;;;;;;;29.27;21.49;101081.22;5059277;28;20061;-59